Time;durP1;ratioP1;P1;durP2;ratioP2;P2;SDS_P1;SDS_P2;PMS_P1;PMS_P2;Temp;Humidity;BMP_temperature;BMP_pressure;BME280_temperature;BME280_humidity;BME280_pressure;Samples;Min_cycle;Max_cycle;Signal;HPM_P1;HPM_P2
2022/01/13 00:01:31;;;;;;;0.80;0.80;;;-2.60;99.90;;;;;;4920612;29;20428;-79
2022/01/13 00:04:00;;;;;;;0.60;0.60;;;-2.60;99.90;;;;;;4920364;29;20483;-79
2022/01/13 00:06:27;;;;;;;0.40;0.40;;;-2.70;99.90;;;;;;4920265;29;20454;-79
2022/01/13 00:08:54;;;;;;;0.40;0.40;;;-2.70;99.90;;;;;;4920275;29;20452;-76
2022/01/13 00:11:21;;;;;;;0.40;0.40;;;-2.70;99.90;;;;;;4919970;29;20963;-76
2022/01/13 00:13:51;;;;;;;0.70;0.70;;;-2.70;99.90;;;;;;4920289;29;20450;-76
2022/01/13 00:16:37;;;;;;;0.33;0.33;;;-2.80;99.90;;;;;;4920294;29;20440;-76
2022/01/13 00:19:18;;;;;;;0.33;0.33;;;-2.70;99.90;;;;;;4920150;29;20411;-76
2022/01/13 00:21:51;;;;;;;1.23;1.23;;;-2.70;99.90;;;;;;4920602;29;20415;-76
2022/01/13 00:24:18;;;;;;;0.30;0.30;;;-2.70;99.90;;;;;;4920329;29;20475;-76
2022/01/13 00:26:46;;;;;;;0.30;0.30;;;-2.70;99.90;;;;;;4919906;29;20483;-76
2022/01/13 00:29:19;;;;;;;0.40;0.40;;;-2.80;99.90;;;;;;4919889;29;20462;-76
2022/01/13 00:31:46;;;;;;;1.03;1.03;;;-2.70;99.90;;;;;;4919990;29;20444;-76
2022/01/13 00:34:14;;;;;;;0.40;0.40;;;-2.70;99.90;;;;;;4919770;29;20463;-76
2022/01/13 00:36:41;;;;;;;0.30;0.30;;;-2.70;99.90;;;;;;4919635;29;20484;-75
2022/01/13 00:39:11;;;;;;;0.60;0.60;;;-2.70;99.90;;;;;;4919803;29;20414;-76
2022/01/13 00:41:37;;;;;;;0.77;0.77;;;-2.70;99.90;;;;;;4919761;29;20547;-76
2022/01/13 00:44:07;;;;;;;0.50;0.50;;;-2.60;99.90;;;;;;4919606;29;20467;-76
2022/01/13 00:46:42;;;;;;;1.20;1.20;;;-2.60;99.90;;;;;;4919320;29;20487;-76
2022/01/13 00:49:10;;;;;;;0.40;0.40;;;-2.60;99.90;;;;;;4919646;29;20526;-76
2022/01/13 00:51:38;;;;;;;0.63;0.50;;;-2.50;99.90;;;;;;4919073;29;20463;-76
2022/01/13 00:54:07;;;;;;;0.30;0.30;;;-2.50;99.90;;;;;;4919479;29;20452;-76
2022/01/13 00:56:35;;;;;;;0.50;0.50;;;-2.50;99.90;;;;;;4919625;29;20444;-76
2022/01/13 00:59:03;;;;;;;0.40;0.33;;;-2.50;99.90;;;;;;4919412;29;20452;-76
2022/01/13 01:01:30;;;;;;;0.30;0.30;;;-2.40;99.90;;;;;;4919083;29;21038;-76
2022/01/13 01:03:56;;;;;;;0.50;0.50;;;-2.40;99.90;;;;;;4918965;29;20505;-76
2022/01/13 01:06:23;;;;;;;0.40;0.40;;;-2.40;99.90;;;;;;4919122;29;20522;-76
2022/01/13 01:08:51;;;;;;;0.30;0.30;;;-2.40;99.90;;;;;;4919237;29;20459;-76
2022/01/13 01:11:18;;;;;;;0.77;0.77;;;-2.40;99.90;;;;;;4919211;29;20464;-76
2022/01/13 01:13:48;;;;;;;0.83;0.83;;;-2.40;99.90;;;;;;4918785;29;20902;-76
2022/01/13 01:16:17;;;;;;;1.23;1.23;;;-2.40;99.90;;;;;;4919098;29;20452;-76
2022/01/13 01:18:53;;;;;;;9.40;1.23;;;-2.50;99.90;;;;;;4918900;29;20437;-79
2022/01/13 01:24:52;;;;;;;1.13;1.13;;;-2.60;99.90;;;;;;4873987;29;20442;-79
2022/01/13 01:27:19;;;;;;;0.50;0.50;;;-2.60;99.90;;;;;;4918431;29;20969;-79
2022/01/13 01:29:53;;;;;;;0.30;0.30;;;-2.70;99.90;;;;;;4918766;29;20457;-79
2022/01/13 01:32:20;;;;;;;0.40;0.40;;;-2.70;99.90;;;;;;4919405;29;20418;-79
2022/01/13 01:34:59;;;;;;;0.40;0.40;;;-2.70;99.90;;;;;;4918703;29;20524;-79
2022/01/13 01:37:28;;;;;;;0.93;0.93;;;-2.70;99.90;;;;;;4918740;29;20500;-78
2022/01/13 01:39:58;;;;;;;0.30;0.30;;;-2.70;99.90;;;;;;4918863;29;20452;-79
2022/01/13 01:42:26;;;;;;;0.73;0.73;;;-2.60;99.90;;;;;;4918620;29;20430;-79
2022/01/13 01:44:55;;;;;;;0.30;0.30;;;-2.60;99.90;;;;;;4918933;29;20480;-79
2022/01/13 01:47:25;;;;;;;0.50;0.50;;;-2.50;99.90;;;;;;4918508;29;20563;-79
2022/01/13 01:49:56;;;;;;;0.60;0.60;;;-2.40;99.90;;;;;;4918579;29;20438;-78
2022/01/13 01:52:23;;;;;;;0.30;0.30;;;-2.40;99.90;;;;;;4918371;29;20424;-78
2022/01/13 01:54:51;;;;;;;0.50;0.50;;;-2.30;99.90;;;;;;4918361;29;20464;-79
2022/01/13 01:57:21;;;;;;;0.50;0.50;;;-2.20;99.90;;;;;;4918309;29;20456;-79
2022/01/13 01:59:49;;;;;;;0.33;0.33;;;-2.20;99.90;;;;;;4918385;29;20486;-82
2022/01/13 02:02:15;;;;;;;0.77;0.57;;;-2.10;99.90;;;;;;4918264;29;20502;-82
2022/01/13 02:04:43;;;;;;;0.30;0.30;;;-2.10;99.90;;;;;;4917567;29;20841;-82
2022/01/13 02:07:11;;;;;;;0.50;0.50;;;-2.00;99.90;;;;;;4918267;29;20458;-81
2022/01/13 02:09:41;;;;;;;0.30;0.30;;;-2.00;99.90;;;;;;4918135;29;20459;-81
2022/01/13 02:12:13;;;;;;;0.30;0.30;;;-1.90;99.90;;;;;;4918241;29;20423;-81
2022/01/13 02:14:55;;;;;;;0.57;0.57;;;-1.80;99.90;;;;;;4918285;29;20459;-76
2022/01/13 02:17:25;;;;;;;0.63;0.63;;;-1.80;99.90;;;;;;4918608;29;20758;-76
2022/01/13 02:19:54;;;;;;;0.30;0.30;;;-1.70;99.90;;;;;;4918166;29;20433;-76
2022/01/13 02:22:24;;;;;;;0.47;0.47;;;-1.70;99.90;;;;;;4919852;29;20430;-76
2022/01/13 02:24:51;;;;;;;0.37;0.37;;;-1.60;99.90;;;;;;4921194;29;20476;-76
2022/01/13 02:27:18;;;;;;;0.33;0.30;;;-1.50;99.90;;;;;;4921041;29;20479;-76
2022/01/13 02:29:44;;;;;;;1.83;1.80;;;-1.50;99.90;;;;;;4918617;29;20467;-77
2022/01/13 02:32:11;;;;;;;0.53;0.53;;;-1.40;99.90;;;;;;4917644;29;20438;-78
2022/01/13 02:34:38;;;;;;;0.30;0.30;;;-1.40;99.90;;;;;;4917531;29;20996;-78
2022/01/13 02:37:05;;;;;;;0.90;0.90;;;-1.40;99.90;;;;;;4917431;29;20483;-78
2022/01/13 02:39:34;;;;;;;1.27;1.17;;;-1.40;99.90;;;;;;4917732;29;20430;-76
2022/01/13 02:42:03;;;;;;;0.40;0.40;;;-1.40;99.90;;;;;;4917635;29;20499;-76
2022/01/13 02:44:31;;;;;;;0.50;0.50;;;-1.30;99.90;;;;;;4917469;29;20472;-82
2022/01/13 02:47:21;;;;;;;0.30;0.30;;;-1.30;99.90;;;;;;4918211;29;20563;-82
2022/01/13 02:49:48;;;;;;;0.53;0.53;;;-1.30;99.90;;;;;;4917862;29;20445;-82
2022/01/13 02:52:14;;;;;;;0.80;0.80;;;-1.30;99.90;;;;;;4917283;29;21003;-82
2022/01/13 02:54:42;;;;;;;0.50;0.50;;;-1.30;99.90;;;;;;4917318;29;20522;-81
2022/01/13 02:57:09;;;;;;;0.50;0.50;;;-1.20;99.90;;;;;;4917414;29;20464;-81
2022/01/13 02:59:36;;;;;;;0.30;0.30;;;-1.20;99.90;;;;;;4917596;29;20507;-81
2022/01/13 03:02:03;;;;;;;0.60;0.60;;;-1.20;99.90;;;;;;4917064;29;20419;-81
2022/01/13 03:04:29;;;;;;;0.30;0.30;;;-1.20;99.90;;;;;;4916968;29;20999;-81
2022/01/13 03:06:56;;;;;;;0.30;0.30;;;-1.20;99.90;;;;;;4917224;29;20509;-81
2022/01/13 03:09:23;;;;;;;0.43;0.43;;;-1.20;99.90;;;;;;4917273;29;20534;-81
2022/01/13 03:11:51;;;;;;;0.53;0.53;;;-1.10;99.90;;;;;;4916985;29;20802;-81
2022/01/13 03:14:17;;;;;;;0.30;0.30;;;-1.10;99.90;;;;;;4916962;29;20487;-81
2022/01/13 03:16:45;;;;;;;0.30;0.20;;;-1.10;99.90;;;;;;4916842;29;20996;-81
2022/01/13 03:19:13;;;;;;;0.60;0.60;;;-1.10;99.90;;;;;;4917132;29;20438;-81
2022/01/13 03:21:40;;;;;;;0.40;0.40;;;-1.10;99.90;;;;;;4917074;29;20459;-81
2022/01/13 03:24:10;;;;;;;0.30;0.30;;;-1.10;99.90;;;;;;4917006;29;20476;-81
2022/01/13 03:26:37;;;;;;;2.20;2.10;;;-1.10;99.90;;;;;;4916784;29;20986;-81
2022/01/13 03:29:16;;;;;;;0.30;0.30;;;-1.10;99.90;;;;;;4917064;29;20459;-81
2022/01/13 03:31:44;;;;;;;0.30;0.27;;;-1.00;99.90;;;;;;4917115;29;20415;-83
2022/01/13 03:34:13;;;;;;;0.40;0.40;;;-1.00;99.90;;;;;;4917054;29;20503;-83
2022/01/13 03:36:40;;;;;;;0.87;0.73;;;-1.10;99.90;;;;;;4917661;29;20832;-82
2022/01/13 03:39:08;;;;;;;0.50;0.50;;;-1.10;99.90;;;;;;4917283;29;20467;-82
2022/01/13 03:41:35;;;;;;;0.30;0.30;;;-1.10;99.90;;;;;;4916999;29;20463;-82
2022/01/13 03:44:06;;;;;;;0.47;0.47;;;-1.00;99.90;;;;;;4916861;29;20476;-81
2022/01/13 03:46:36;;;;;;;0.40;0.40;;;-1.00;99.90;;;;;;4916543;29;20415;-81
2022/01/13 03:49:03;;;;;;;0.60;0.60;;;-1.00;99.90;;;;;;4916641;29;20963;-81
2022/01/13 03:52:34;;;;;;;0.40;0.40;;;-1.00;99.90;;;;;;4916907;29;20434;-82
2022/01/13 03:55:38;;;;;;;0.73;0.73;;;-0.90;99.90;;;;;;4916282;29;20471;-76
2022/01/13 03:59:01;;;;;;;0.97;0.97;;;-0.90;99.90;;;;;;4916470;29;20491;-78
2022/01/13 04:02:05;;;;;;;0.53;0.53;;;-0.90;99.90;;;;;;4916464;29;20444;-81
2022/01/13 04:04:33;;;;;;;0.30;0.30;;;-0.90;99.90;;;;;;4916400;29;20459;-81
2022/01/13 04:07:15;;;;;;;0.30;0.30;;;-0.90;99.90;;;;;;4916425;29;20894;-81
2022/01/13 04:10:27;;;;;;;0.40;0.30;;;-1.00;99.90;;;;;;4916698;29;20459;-81
2022/01/13 04:12:56;;;;;;;0.30;0.30;;;-1.00;99.90;;;;;;4916816;29;20492;-81
2022/01/13 04:15:28;;;;;;;0.30;0.30;;;-1.00;99.90;;;;;;4916409;29;20539;-81
2022/01/13 04:17:56;;;;;;;0.30;0.30;;;-1.00;99.90;;;;;;4916629;29;20867;-78
2022/01/13 04:20:23;;;;;;;0.50;0.50;;;-1.00;99.90;;;;;;4916745;29;20455;-76
2022/01/13 04:22:51;;;;;;;0.30;0.30;;;-1.10;99.90;;;;;;4916499;29;20452;-76
2022/01/13 04:25:22;;;;;;;0.30;0.30;;;-1.10;99.90;;;;;;4916618;29;20435;-81
2022/01/13 04:27:49;;;;;;;0.40;0.40;;;-1.10;99.90;;;;;;4918927;29;21045;-76
2022/01/13 04:30:32;;;;;;;0.87;0.87;;;-1.10;99.90;;;;;;4919846;29;20470;-76
2022/01/13 04:33:01;;;;;;;0.30;0.30;;;-1.10;99.90;;;;;;4919585;29;20924;-76
2022/01/13 04:35:28;;;;;;;0.43;0.43;;;-1.10;99.90;;;;;;4919877;29;20472;-76
2022/01/13 04:37:55;;;;;;;1.17;0.77;;;-1.10;99.90;;;;;;4919651;29;20490;-82
2022/01/13 04:40:22;;;;;;;0.40;0.40;;;-1.00;99.90;;;;;;4919674;29;20833;-83
2022/01/13 04:42:53;;;;;;;0.47;0.47;;;-1.10;99.90;;;;;;4919634;29;20467;-82
2022/01/13 04:45:20;;;;;;;0.30;0.30;;;-1.10;99.90;;;;;;4919776;29;20440;-78
2022/01/13 04:47:49;;;;;;;0.37;0.37;;;-1.00;99.90;;;;;;4919299;29;21016;-78
2022/01/13 04:50:17;;;;;;;0.40;0.40;;;-1.00;99.90;;;;;;4919588;29;20463;-78
2022/01/13 04:52:44;;;;;;;0.70;0.70;;;-0.90;99.90;;;;;;4919250;29;20422;-78
2022/01/13 04:55:13;;;;;;;1.50;1.40;;;-0.90;99.90;;;;;;4919521;29;20858;-78
2022/01/13 04:57:40;;;;;;;0.30;0.30;;;-0.90;99.90;;;;;;4919962;29;20446;-77
2022/01/13 05:00:09;;;;;;;1.23;1.23;;;-0.90;99.90;;;;;;4923012;29;20433;-77
2022/01/13 05:02:36;;;;;;;0.30;0.30;;;-0.90;99.90;;;;;;4920708;29;20456;-78
2022/01/13 05:05:04;;;;;;;0.30;0.30;;;-0.90;99.90;;;;;;4919331;29;20450;-76
2022/01/13 05:07:32;;;;;;;0.43;0.43;;;-0.80;99.90;;;;;;4919132;29;21017;-76
2022/01/13 05:09:59;;;;;;;0.40;0.40;;;-0.90;99.90;;;;;;4919575;29;20448;-76
2022/01/13 05:12:31;;;;;;;0.30;0.30;;;-0.80;99.90;;;;;;4919317;29;20460;-82
2022/01/13 05:15:02;;;;;;;2.20;2.10;;;-0.80;99.90;;;;;;4919678;29;20484;-82
2022/01/13 05:20:16;;;;;;;0.40;0.40;;;-0.90;99.90;;;;;;4919464;29;20743;-81
2022/01/13 05:22:44;;;;;;;0.30;0.30;;;-0.90;99.90;;;;;;4919047;29;20859;-81
2022/01/13 05:25:12;;;;;;;0.50;0.50;;;-1.00;99.90;;;;;;4918775;29;20442;-81
2022/01/13 05:27:39;;;;;;;0.60;0.60;;;-1.10;99.90;;;;;;4919088;29;20484;-82
2022/01/13 05:30:08;;;;;;;0.30;0.30;;;-1.10;99.90;;;;;;4918821;29;20439;-82
2022/01/13 05:32:34;;;;;;;0.50;0.50;;;-1.20;99.90;;;;;;4918722;29;20460;-82
2022/01/13 05:35:01;;;;;;;0.80;0.50;;;-1.30;99.90;;;;;;4918427;29;20989;-78
2022/01/13 05:37:28;;;;;;;0.90;0.90;;;-1.30;99.90;;;;;;4918393;29;20480;-76
2022/01/13 05:39:56;;;;;;;0.60;0.60;;;-1.40;99.90;;;;;;4918728;29;20464;-76
2022/01/13 05:42:24;;;;;;;0.50;0.50;;;-1.40;99.90;;;;;;4918871;29;20474;-76
2022/01/13 05:44:50;;;;;;;0.30;0.30;;;-1.50;99.90;;;;;;4918222;29;20979;-81
2022/01/13 05:47:17;;;;;;;0.37;0.37;;;-1.50;99.90;;;;;;4918237;29;20426;-76
2022/01/13 05:49:44;;;;;;;0.40;0.40;;;-1.60;99.90;;;;;;4918550;29;20448;-76
2022/01/13 05:52:13;;;;;;;0.50;0.50;;;-1.60;99.90;;;;;;4918305;29;20422;-76
2022/01/13 05:54:40;;;;;;;0.93;0.93;;;-1.60;99.90;;;;;;4918302;29;20472;-76
2022/01/13 05:57:09;;;;;;;0.93;0.70;;;-1.70;99.90;;;;;;4918419;29;20456;-81
2022/01/13 05:59:36;;;;;;;0.30;0.30;;;-1.70;99.90;;;;;;4918035;29;20921;-81
2022/01/13 06:02:03;;;;;;;0.40;0.40;;;-1.80;99.90;;;;;;4917993;29;20447;-81
2022/01/13 06:04:30;;;;;;;0.30;0.30;;;-1.80;99.90;;;;;;4918297;29;20476;-76
2022/01/13 06:06:57;;;;;;;3.17;1.50;;;-1.90;99.90;;;;;;4918621;29;20415;-76
2022/01/13 06:09:23;;;;;;;0.30;0.30;;;-1.90;99.90;;;;;;4918380;29;20474;-76
2022/01/13 06:11:57;;;;;;;0.60;0.60;;;-1.90;99.90;;;;;;4918329;29;20452;-76
2022/01/13 06:14:25;;;;;;;0.50;0.50;;;-1.90;99.90;;;;;;4918103;29;20464;-82
2022/01/13 06:16:52;;;;;;;0.40;0.40;;;-2.00;99.90;;;;;;4917992;29;20456;-76
2022/01/13 06:19:18;;;;;;;0.30;0.30;;;-2.00;99.90;;;;;;4917406;29;20975;-76
2022/01/13 06:21:45;;;;;;;0.93;0.93;;;-2.10;99.90;;;;;;4917860;29;20821;-76
2022/01/13 06:24:12;;;;;;;0.30;0.30;;;-2.00;99.90;;;;;;4917886;29;20483;-76
2022/01/13 06:26:39;;;;;;;0.30;0.30;;;-2.00;99.90;;;;;;4917534;29;20793;-76
2022/01/13 06:29:06;;;;;;;0.30;0.30;;;-2.00;99.90;;;;;;4917475;29;20451;-76
2022/01/13 06:31:34;;;;;;;0.30;0.30;;;-2.00;99.90;;;;;;4917706;29;20837;-76
2022/01/13 06:34:01;;;;;;;0.60;0.60;;;-2.10;99.90;;;;;;4917444;29;20452;-81
2022/01/13 06:36:28;;;;;;;0.30;0.30;;;-2.10;99.90;;;;;;4917489;29;20434;-81
2022/01/13 06:38:55;;;;;;;0.63;0.63;;;-2.10;99.90;;;;;;4918099;29;20453;-81
2022/01/13 06:41:22;;;;;;;0.40;0.40;;;-2.20;99.90;;;;;;4917668;29;20430;-81
2022/01/13 06:43:49;;;;;;;0.30;0.30;;;-2.10;99.90;;;;;;4917224;29;20992;-81
2022/01/13 06:46:16;;;;;;;0.30;0.30;;;-2.20;99.90;;;;;;4917491;29;20435;-82
2022/01/13 06:48:45;;;;;;;0.30;0.30;;;-2.10;99.90;;;;;;4917284;29;20569;-82
2022/01/13 06:51:13;;;;;;;0.37;0.37;;;-2.10;99.90;;;;;;4917352;29;20455;-76
2022/01/13 06:53:39;;;;;;;0.30;0.30;;;-2.10;99.90;;;;;;4917168;29;20435;-76
2022/01/13 06:56:06;;;;;;;0.30;0.30;;;-2.10;99.90;;;;;;4917385;29;20422;-77
2022/01/13 06:58:33;;;;;;;0.30;0.30;;;-2.10;99.90;;;;;;4917445;29;20426;-76
2022/01/13 07:01:00;;;;;;;0.30;0.30;;;-2.10;99.90;;;;;;4917360;29;20427;-81
2022/01/13 07:03:26;;;;;;;1.03;0.53;;;-2.10;99.90;;;;;;4917440;29;20447;-79
2022/01/13 07:05:54;;;;;;;0.30;0.30;;;-2.20;99.90;;;;;;4917187;29;20431;-82
2022/01/13 07:08:21;;;;;;;1.00;0.60;;;-2.20;99.90;;;;;;4916986;29;20461;-82
2022/01/13 07:10:48;;;;;;;0.30;0.30;;;-2.20;99.90;;;;;;4917293;29;20442;-81
2022/01/13 07:13:15;;;;;;;0.30;0.30;;;-2.20;99.90;;;;;;4917168;29;20480;-82
2022/01/13 07:15:45;;;;;;;1.17;0.97;;;-2.20;99.90;;;;;;4917142;29;20459;-79
2022/01/13 07:18:12;;;;;;;0.50;0.50;;;-2.30;99.90;;;;;;4917232;29;20454;-78
2022/01/13 07:20:42;;;;;;;0.30;0.30;;;-2.30;99.90;;;;;;4917127;29;20460;-81
2022/01/13 07:23:11;;;;;;;0.40;0.40;;;-2.30;99.90;;;;;;4917889;29;20472;-81
2022/01/13 07:25:38;;;;;;;0.37;0.37;;;-2.30;99.90;;;;;;4919125;29;20426;-81
2022/01/13 07:28:05;;;;;;;0.30;0.30;;;-2.30;99.90;;;;;;4921841;29;20486;-80
2022/01/13 07:30:32;;;;;;;0.30;0.30;;;-2.30;99.90;;;;;;4938730;29;20432;-81
2022/01/13 07:32:59;;;;;;;0.93;0.93;;;-2.30;99.90;;;;;;4920653;29;20456;-78
2022/01/13 07:35:25;;;;;;;0.60;0.60;;;-2.20;99.90;;;;;;4917132;29;20416;-81
2022/01/13 07:37:52;;;;;;;0.30;0.30;;;-2.20;99.90;;;;;;4916758;29;20492;-81
2022/01/13 07:40:20;;;;;;;0.30;0.30;;;-2.20;99.90;;;;;;4916753;29;20854;-76
2022/01/13 07:42:48;;;;;;;0.50;0.50;;;-2.20;99.90;;;;;;4917003;29;20451;-79
2022/01/13 07:45:18;;;;;;;1.10;1.10;;;-2.20;99.90;;;;;;4917746;29;20460;-81
2022/01/13 07:47:46;;;;;;;0.40;0.40;;;-2.20;99.90;;;;;;4917020;29;20446;-83
2022/01/13 07:50:15;;;;;;;2.83;0.60;;;-2.10;99.90;;;;;;4916922;29;20480;-84
2022/01/13 07:52:42;;;;;;;1.53;1.47;;;-2.10;99.90;;;;;;4916883;29;20442;-83
2022/01/13 07:55:10;;;;;;;0.60;0.60;;;-2.10;99.90;;;;;;4916891;29;20459;-82
2022/01/13 07:57:38;;;;;;;0.30;0.30;;;-2.10;99.90;;;;;;4916618;29;20945;-79
2022/01/13 08:00:08;;;;;;;0.63;0.63;;;-2.00;99.90;;;;;;4916606;29;20945;-76
2022/01/13 08:02:35;;;;;;;0.40;0.40;;;-2.00;99.90;;;;;;4919530;29;20467;-76
2022/01/13 08:05:01;;;;;;;0.40;0.40;;;-1.90;99.90;;;;;;4920089;29;20985;-83
2022/01/13 08:07:28;;;;;;;0.50;0.50;;;-1.90;99.90;;;;;;4920464;29;20454;-83
2022/01/13 08:09:55;;;;;;;0.30;0.30;;;-1.80;99.90;;;;;;4920069;29;20462;-83
2022/01/13 08:12:22;;;;;;;0.67;0.67;;;-1.80;99.90;;;;;;4920012;29;20427;-76
2022/01/13 08:14:51;;;;;;;1.00;1.00;;;-1.70;99.90;;;;;;4920212;29;20483;-76
2022/01/13 08:19:45;;;;;;;0.93;0.93;;;-1.70;99.90;;;;;;4920401;29;20450;-78
2022/01/13 08:20:07;;;;;;;0.30;0.30;;;-1.70;99.90;;;;;;4919741;29;21025;-79
2022/01/13 08:22:34;;;;;;;0.30;0.30;;;-1.70;99.90;;;;;;4920025;29;20459;-79
2022/01/13 08:25:02;;;;;;;0.30;0.30;;;-1.60;99.90;;;;;;4919759;29;20976;-78
2022/01/13 08:27:28;;;;;;;0.40;0.40;;;-1.50;99.90;;;;;;4920670;29;20438;-80
2022/01/13 08:29:56;;;;;;;0.30;0.30;;;-1.50;99.90;;;;;;4919935;29;20487;-81
2022/01/13 08:32:24;;;;;;;0.30;0.30;;;-1.40;99.90;;;;;;4920004;29;20447;-81
2022/01/13 08:34:50;;;;;;;0.30;0.30;;;-1.40;99.90;;;;;;4919944;29;20518;-81
2022/01/13 08:37:17;;;;;;;0.97;0.97;;;-1.40;99.90;;;;;;4920195;29;20850;-81
2022/01/13 08:39:45;;;;;;;0.50;0.50;;;-1.30;99.90;;;;;;4920372;29;20455;-76
2022/01/13 08:42:12;;;;;;;7.17;1.67;;;-1.30;99.90;;;;;;4919789;29;20434;-83
2022/01/13 08:44:39;;;;;;;0.40;0.40;;;-1.20;99.90;;;;;;4919472;29;20447;-83
2022/01/13 08:47:09;;;;;;;0.30;0.20;;;-1.20;99.90;;;;;;4919706;29;20430;-83
2022/01/13 08:49:36;;;;;;;0.30;0.30;;;-1.10;99.90;;;;;;4919642;29;20470;-83
2022/01/13 08:52:03;;;;;;;1.43;1.03;;;-1.00;99.90;;;;;;4919270;29;21027;-76
2022/01/13 08:54:30;;;;;;;0.40;0.40;;;-0.90;99.90;;;;;;4919428;29;20472;-76
2022/01/13 08:56:58;;;;;;;1.63;1.53;;;-0.90;99.90;;;;;;4919218;29;20456;-81
2022/01/13 08:59:25;;;;;;;0.30;0.27;;;-0.80;99.90;;;;;;4919167;29;20474;-83
2022/01/13 09:01:53;;;;;;;1.43;1.33;;;-0.70;99.90;;;;;;4919134;29;20949;-83
2022/01/13 09:04:21;;;;;;;0.30;0.30;;;-0.70;99.90;;;;;;4919076;29;20992;-76
2022/01/13 09:06:48;;;;;;;0.30;0.30;;;-0.60;99.90;;;;;;4919367;29;20437;-78
2022/01/13 09:09:15;;;;;;;0.30;0.30;;;-0.50;99.90;;;;;;4919244;29;20539;-78
2022/01/13 09:11:41;;;;;;;0.30;0.30;;;-0.40;99.90;;;;;;4918819;29;20515;-81
2022/01/13 09:14:09;;;;;;;0.30;0.30;;;-0.40;99.90;;;;;;4918943;29;20472;-81
2022/01/13 09:16:42;;;;;;;0.30;0.30;;;-0.30;99.90;;;;;;4918858;29;20452;-78
2022/01/13 09:19:10;;;;;;;0.40;0.40;;;-0.20;99.90;;;;;;4919209;29;20436;-80
2022/01/13 09:21:39;;;;;;;0.47;0.47;;;-0.20;99.90;;;;;;4919108;29;20862;-81
2022/01/13 09:24:08;;;;;;;0.60;0.60;;;-0.10;99.90;;;;;;4918999;29;20453;-81
2022/01/13 09:26:35;;;;;;;0.30;0.30;;;0.30;99.90;;;;;;4921660;29;20452;-80
2022/01/13 09:29:02;;;;;;;0.50;0.50;;;1.00;99.90;;;;;;4920183;29;21000;-81
2022/01/13 09:31:29;;;;;;;0.60;0.60;;;2.10;99.90;;;;;;4918729;29;20439;-80
2022/01/13 09:33:56;;;;;;;0.67;0.67;;;3.10;99.90;;;;;;4918752;29;20527;-78
2022/01/13 09:36:22;;;;;;;2.27;1.27;;;4.10;99.90;;;;;;4919977;29;20459;-78
2022/01/13 09:38:50;;;;;;;1.33;0.77;;;4.70;99.90;;;;;;4919859;29;20452;-78
2022/01/13 09:41:19;;;;;;;1.47;1.00;;;5.30;99.90;;;;;;4919399;29;20440;-78
2022/01/13 09:43:46;;;;;;;3.30;0.93;;;5.60;99.90;;;;;;4918290;29;20480;-83
2022/01/13 09:46:13;;;;;;;0.50;0.50;;;6.00;99.90;;;;;;4918690;29;20488;-81
2022/01/13 09:48:40;;;;;;;0.40;0.40;;;6.00;99.90;;;;;;4918584;29;20452;-80
2022/01/13 09:51:07;;;;;;;0.33;0.33;;;6.00;99.90;;;;;;4919089;29;20447;-76
2022/01/13 09:53:34;;;;;;;1.70;0.70;;;6.00;99.90;;;;;;4918486;29;20519;-76
2022/01/13 09:56:04;;;;;;;3.30;0.60;;;6.20;99.90;;;;;;4918445;29;20491;-76
2022/01/13 09:58:31;;;;;;;1.77;0.87;;;6.40;99.90;;;;;;4920683;29;20416;-76
2022/01/13 10:00:58;;;;;;;0.70;0.50;;;6.90;99.90;;;;;;4918578;29;20452;-76
2022/01/13 10:03:27;;;;;;;2.60;1.50;;;7.80;99.90;;;;;;4918282;29;20475;-76
2022/01/13 10:05:55;;;;;;;1.33;1.23;;;9.00;99.90;;;;;;4917881;29;20936;-76
2022/01/13 10:08:23;;;;;;;0.77;0.70;;;9.80;99.90;;;;;;4918229;29;20467;-77
2022/01/13 10:10:51;;;;;;;0.50;0.40;;;10.60;93.70;;;;;;4918143;29;20549;-77
2022/01/13 10:13:39;;;;;;;1.23;1.13;;;11.20;90.70;;;;;;4918058;29;20487;-77
2022/01/13 10:16:23;;;;;;;0.63;0.63;;;12.10;83.40;;;;;;4918056;29;20445;-77
2022/01/13 10:18:51;;;;;;;1.67;0.63;;;12.60;74.70;;;;;;4918037;29;20905;-82
2022/01/13 10:21:20;;;;;;;1.30;0.60;;;13.00;72.00;;;;;;4917748;29;20436;-85
2022/01/13 10:24:06;;;;;;;0.93;0.90;;;12.60;69.70;;;;;;4917390;29;20487;-82
2022/01/13 10:26:34;;;;;;;2.20;1.53;;;11.70;70.00;;;;;;4917936;29;20440;-80
2022/01/13 10:29:04;;;;;;;1.37;0.70;;;10.60;71.80;;;;;;4917800;29;20466;-78
2022/01/13 10:31:48;;;;;;;1.60;1.30;;;9.60;76.00;;;;;;4917853;29;20455;-78
2022/01/13 10:34:25;;;;;;;3.20;1.30;;;8.50;79.90;;;;;;4917695;29;20467;-78
2022/01/13 10:37:03;;;;;;;0.57;0.57;;;7.60;81.80;;;;;;4917415;29;20526;-83
2022/01/13 10:39:48;;;;;;;0.60;0.60;;;6.70;85.50;;;;;;4917310;29;20447;-79
2022/01/13 10:42:43;;;;;;;0.47;0.47;;;6.00;88.20;;;;;;4917569;29;20467;-82
2022/01/13 10:45:05;;;;;;;0.53;0.53;;;5.70;90.60;;;;;;4917116;29;20554;-80
2022/01/13 10:47:32;;;;;;;1.07;0.53;;;5.40;92.80;;;;;;4917595;29;20460;-82
2022/01/13 10:50:01;;;;;;;1.00;0.90;;;5.20;93.80;;;;;;4917196;29;20983;-83
2022/01/13 10:52:28;;;;;;;0.30;0.30;;;5.10;94.80;;;;;;4917412;29;20436;-79
2022/01/13 10:55:00;;;;;;;1.83;1.83;;;5.00;96.00;;;;;;4917261;29;20475;-78
2022/01/13 10:57:28;;;;;;;0.50;0.50;;;4.80;96.90;;;;;;4917472;29;20425;-78
2022/01/13 10:59:55;;;;;;;0.43;0.40;;;4.80;98.40;;;;;;4917261;29;20429;-83
2022/01/13 11:02:23;;;;;;;1.03;1.03;;;4.60;98.10;;;;;;4917177;29;20448;-82
2022/01/13 11:04:50;;;;;;;1.83;1.73;;;4.40;99.00;;;;;;4917657;29;20483;-82
2022/01/13 11:07:19;;;;;;;0.30;0.30;;;4.10;99.90;;;;;;4917556;29;20815;-82
2022/01/13 11:09:53;;;;;;;1.00;1.00;;;3.90;99.90;;;;;;4918031;29;20483;-82
2022/01/13 11:12:33;;;;;;;0.63;0.63;;;3.80;99.90;;;;;;4918450;29;20468;-82
2022/01/13 11:15:04;;;;;;;0.40;0.40;;;3.60;99.90;;;;;;4918141;29;20571;-82
2022/01/13 11:17:36;;;;;;;0.87;0.87;;;3.50;99.90;;;;;;4917250;29;20448;-82
2022/01/13 11:20:04;;;;;;;0.90;0.90;;;3.50;99.90;;;;;;4917064;29;20437;-84
2022/01/13 11:22:35;;;;;;;0.77;0.77;;;3.40;99.90;;;;;;4918220;29;20428;-84
2022/01/13 11:25:02;;;;;;;0.50;0.50;;;3.40;99.90;;;;;;4917094;29;20484;-79
2022/01/13 11:27:29;;;;;;;0.40;0.40;;;3.30;99.90;;;;;;4917147;29;20498;-79
2022/01/13 11:29:57;;;;;;;0.33;0.33;;;3.20;99.90;;;;;;4917075;29;20472;-79
2022/01/13 11:32:24;;;;;;;1.40;1.40;;;3.20;99.90;;;;;;4917361;29;20779;-79
2022/01/13 11:34:54;;;;;;;0.53;0.53;;;3.20;99.90;;;;;;4916740;29;21006;-81
2022/01/13 11:37:21;;;;;;;0.70;0.70;;;3.20;99.90;;;;;;4920709;29;20476;-79
2022/01/13 11:39:48;;;;;;;0.30;0.30;;;3.20;99.90;;;;;;4920890;29;20507;-81
2022/01/13 11:42:15;;;;;;;0.40;0.40;;;3.20;99.90;;;;;;4920484;29;20788;-81
2022/01/13 11:44:43;;;;;;;0.40;0.30;;;3.20;99.90;;;;;;4920776;29;20468;-81
2022/01/13 11:47:23;;;;;;;0.47;0.47;;;3.20;99.90;;;;;;4920832;29;20451;-81
2022/01/13 11:49:58;;;;;;;0.30;0.30;;;3.20;99.90;;;;;;4920768;29;20475;-81
2022/01/13 11:52:42;;;;;;;0.60;0.43;;;3.20;99.90;;;;;;4920624;29;20451;-81
2022/01/13 11:55:23;;;;;;;0.30;0.30;;;3.10;99.90;;;;;;4920474;29;20495;-81
2022/01/13 11:57:50;;;;;;;0.37;0.37;;;3.20;99.90;;;;;;4920563;29;20472;-84
2022/01/13 12:00:29;;;;;;;3.20;0.93;;;3.20;99.90;;;;;;4920588;29;20432;-82
2022/01/13 12:02:56;;;;;;;0.37;0.37;;;3.20;99.90;;;;;;4920464;29;20450;-82
2022/01/13 12:05:25;;;;;;;2.67;2.53;;;3.20;99.90;;;;;;4920532;29;20448;-82
2022/01/13 12:07:55;;;;;;;0.37;0.37;;;3.30;99.90;;;;;;4920334;29;20913;-84
2022/01/13 12:10:53;;;;;;;0.30;0.30;;;3.40;99.90;;;;;;4920108;29;20969;-81
2022/01/13 12:13:44;;;;;;;1.23;1.23;;;3.40;99.90;;;;;;4920861;29;20466;-83
2022/01/13 12:16:12;;;;;;;0.60;0.60;;;3.40;99.90;;;;;;4920228;29;20448;-82
2022/01/13 12:19:08;;;;;;;0.47;0.47;;;3.30;99.90;;;;;;4919988;29;20929;-82
2022/01/13 12:21:40;;;;;;;0.30;0.30;;;3.20;99.90;;;;;;4920877;29;20763;-84
2022/01/13 12:24:12;;;;;;;0.47;0.47;;;3.10;99.90;;;;;;4920155;29;20472;-81
2022/01/13 12:26:49;;;;;;;1.53;0.50;;;3.00;99.90;;;;;;4920394;29;20472;-81
2022/01/13 12:29:19;;;;;;;0.33;0.27;;;2.90;99.90;;;;;;4919839;29;20519;-78
2022/01/13 12:31:51;;;;;;;0.97;0.90;;;2.90;99.90;;;;;;4919963;29;20952;-77
2022/01/13 12:34:24;;;;;;;0.53;0.53;;;2.90;99.90;;;;;;4920633;29;20475;-77
2022/01/13 12:36:50;;;;;;;0.40;0.40;;;2.90;99.90;;;;;;4919530;29;20491;-77
2022/01/13 12:39:19;;;;;;;0.30;0.30;;;2.80;99.90;;;;;;4919822;29;20460;-77
2022/01/13 12:41:56;;;;;;;0.33;0.33;;;2.80;99.90;;;;;;4919943;29;20476;-81
2022/01/13 12:45:28;;;;;;;0.40;0.40;;;2.80;99.90;;;;;;4919756;29;20484;-82
2022/01/13 12:47:23;;;;;;;0.87;0.87;;;2.90;99.90;;;;;;4918477;29;20452;-77
2022/01/13 12:49:49;;;;;;;0.63;0.63;;;2.90;99.90;;;;;;4919680;29;20901;-77
2022/01/13 12:52:20;;;;;;;0.30;0.30;;;3.00;99.90;;;;;;4919801;29;20456;-77
2022/01/13 12:54:49;;;;;;;0.30;0.30;;;3.00;99.90;;;;;;4919840;29;20483;-78
2022/01/13 12:57:16;;;;;;;0.30;0.30;;;3.00;99.90;;;;;;4925488;29;20507;-78
2022/01/13 12:59:43;;;;;;;0.40;0.40;;;2.90;99.90;;;;;;4919867;29;20515;-78
2022/01/13 13:02:10;;;;;;;0.30;0.20;;;3.00;99.90;;;;;;4919407;29;20451;-79
2022/01/13 13:04:38;;;;;;;0.30;0.20;;;3.00;99.90;;;;;;4919599;29;20476;-80
2022/01/13 13:07:06;;;;;;;0.70;0.70;;;3.00;99.90;;;;;;4919757;29;20436;-80
2022/01/13 13:09:33;;;;;;;0.30;0.30;;;3.00;99.90;;;;;;4920163;29;20456;-81
2022/01/13 13:12:04;;;;;;;0.30;0.30;;;3.00;99.90;;;;;;4919261;29;20886;-81